sensor_id;sensor_type;location;lat;lon;timestamp;temperature;humidity
48162;DHT22;33950;48.154;16.316;2022-07-15T00:01:58;23.40;82.60
48162;DHT22;33950;48.154;16.316;2022-07-15T00:04:24;23.40;82.80
48162;DHT22;33950;48.154;16.316;2022-07-15T00:06:49;23.30;83.40
48162;DHT22;33950;48.154;16.316;2022-07-15T00:09:15;23.30;83.10
48162;DHT22;33950;48.154;16.316;2022-07-15T00:11:41;23.30;82.80
48162;DHT22;33950;48.154;16.316;2022-07-15T00:14:07;23.50;82.40
48162;DHT22;33950;48.154;16.316;2022-07-15T00:16:33;23.50;82.20
48162;DHT22;33950;48.154;16.316;2022-07-15T00:19:00;23.60;82.00
48162;DHT22;33950;48.154;16.316;2022-07-15T00:21:25;23.60;81.70
48162;DHT22;33950;48.154;16.316;2022-07-15T00:23:51;23.60;81.60
48162;DHT22;33950;48.154;16.316;2022-07-15T00:26:17;23.70;81.60
48162;DHT22;33950;48.154;16.316;2022-07-15T00:28:43;23.70;81.70
48162;DHT22;33950;48.154;16.316;2022-07-15T00:31:09;23.70;81.90
48162;DHT22;33950;48.154;16.316;2022-07-15T00:33:35;23.60;82.10
48162;DHT22;33950;48.154;16.316;2022-07-15T00:36:02;23.40;83.20
48162;DHT22;33950;48.154;16.316;2022-07-15T00:38:28;23.20;84.00
48162;DHT22;33950;48.154;16.316;2022-07-15T00:40:54;23.10;84.50
48162;DHT22;33950;48.154;16.316;2022-07-15T00:43:19;22.90;85.30
48162;DHT22;33950;48.154;16.316;2022-07-15T00:45:46;22.90;85.70
48162;DHT22;33950;48.154;16.316;2022-07-15T00:48:12;22.90;87.30
48162;DHT22;33950;48.154;16.316;2022-07-15T00:50:38;22.70;88.40
48162;DHT22;33950;48.154;16.316;2022-07-15T00:53:08;22.60;90.20
48162;DHT22;33950;48.154;16.316;2022-07-15T00:55:38;22.40;91.00
48162;DHT22;33950;48.154;16.316;2022-07-15T00:58:07;22.30;91.40
48162;DHT22;33950;48.154;16.316;2022-07-15T01:00:34;22.20;91.80
48162;DHT22;33950;48.154;16.316;2022-07-15T01:03:01;22.20;92.20
48162;DHT22;33950;48.154;16.316;2022-07-15T01:05:28;22.30;92.50
48162;DHT22;33950;48.154;16.316;2022-07-15T01:07:54;22.30;92.50
48162;DHT22;33950;48.154;16.316;2022-07-15T01:10:22;22.40;92.80
48162;DHT22;33950;48.154;16.316;2022-07-15T01:12:50;22.50;92.80
48162;DHT22;33950;48.154;16.316;2022-07-15T01:15:16;22.40;92.80
48162;DHT22;33950;48.154;16.316;2022-07-15T01:17:43;22.20;92.80
48162;DHT22;33950;48.154;16.316;2022-07-15T01:20:10;22.30;93.10
48162;DHT22;33950;48.154;16.316;2022-07-15T01:22:38;22.30;92.90
48162;DHT22;33950;48.154;16.316;2022-07-15T01:25:04;22.20;93.30
48162;DHT22;33950;48.154;16.316;2022-07-15T01:27:30;22.00;93.10
48162;DHT22;33950;48.154;16.316;2022-07-15T01:29:57;21.90;93.80
48162;DHT22;33950;48.154;16.316;2022-07-15T01:32:24;21.70;94.00
48162;DHT22;33950;48.154;16.316;2022-07-15T01:34:50;21.60;94.60
48162;DHT22;33950;48.154;16.316;2022-07-15T01:37:17;21.50;95.00
48162;DHT22;33950;48.154;16.316;2022-07-15T01:39:44;21.40;95.30
48162;DHT22;33950;48.154;16.316;2022-07-15T01:42:10;21.40;95.40
48162;DHT22;33950;48.154;16.316;2022-07-15T01:44:36;21.40;95.50
48162;DHT22;33950;48.154;16.316;2022-07-15T01:47:02;21.30;95.50
48162;DHT22;33950;48.154;16.316;2022-07-15T01:49:27;21.30;95.70
48162;DHT22;33950;48.154;16.316;2022-07-15T01:51:59;21.20;96.00
48162;DHT22;33950;48.154;16.316;2022-07-15T01:54:27;21.20;96.00
48162;DHT22;33950;48.154;16.316;2022-07-15T01:56:54;21.30;96.40
48162;DHT22;33950;48.154;16.316;2022-07-15T01:59:21;21.30;96.60
48162;DHT22;33950;48.154;16.316;2022-07-15T02:01:51;21.20;96.90
48162;DHT22;33950;48.154;16.316;2022-07-15T02:04:18;21.00;96.70
48162;DHT22;33950;48.154;16.316;2022-07-15T02:06:45;20.80;97.10
48162;DHT22;33950;48.154;16.316;2022-07-15T02:09:12;20.90;97.00
48162;DHT22;33950;48.154;16.316;2022-07-15T02:11:37;20.90;96.50
48162;DHT22;33950;48.154;16.316;2022-07-15T02:14:05;20.90;96.50
48162;DHT22;33950;48.154;16.316;2022-07-15T02:16:32;20.90;97.00
48162;DHT22;33950;48.154;16.316;2022-07-15T02:18:58;20.70;97.50
48162;DHT22;33950;48.154;16.316;2022-07-15T02:21:26;20.30;98.00
48162;DHT22;33950;48.154;16.316;2022-07-15T02:23:52;20.00;98.00
48162;DHT22;33950;48.154;16.316;2022-07-15T02:26:18;19.80;99.50
48162;DHT22;33950;48.154;16.316;2022-07-15T02:28:44;19.50;99.90
48162;DHT22;33950;48.154;16.316;2022-07-15T02:31:11;19.20;99.90
48162;DHT22;33950;48.154;16.316;2022-07-15T02:33:37;19.00;99.90
48162;DHT22;33950;48.154;16.316;2022-07-15T02:36:04;18.80;99.90
48162;DHT22;33950;48.154;16.316;2022-07-15T02:38:29;18.60;99.90
48162;DHT22;33950;48.154;16.316;2022-07-15T02:40:55;18.60;99.90
48162;DHT22;33950;48.154;16.316;2022-07-15T02:43:21;18.60;99.90
48162;DHT22;33950;48.154;16.316;2022-07-15T02:45:47;18.50;99.90
48162;DHT22;33950;48.154;16.316;2022-07-15T02:48:15;18.50;99.90
48162;DHT22;33950;48.154;16.316;2022-07-15T02:50:41;18.40;99.90
48162;DHT22;33950;48.154;16.316;2022-07-15T02:53:07;18.50;99.90
48162;DHT22;33950;48.154;16.316;2022-07-15T02:55:33;18.50;99.90
48162;DHT22;33950;48.154;16.316;2022-07-15T02:57:59;18.50;99.90
48162;DHT22;33950;48.154;16.316;2022-07-15T03:00:25;18.50;99.90
48162;DHT22;33950;48.154;16.316;2022-07-15T03:02:51;18.50;99.90
48162;DHT22;33950;48.154;16.316;2022-07-15T03:05:19;18.50;99.90
48162;DHT22;33950;48.154;16.316;2022-07-15T03:07:45;18.60;99.90
48162;DHT22;33950;48.154;16.316;2022-07-15T03:10:11;18.60;99.90
48162;DHT22;33950;48.154;16.316;2022-07-15T03:12:38;18.70;99.90
48162;DHT22;33950;48.154;16.316;2022-07-15T03:15:05;18.90;99.90
48162;DHT22;33950;48.154;16.316;2022-07-15T03:17:31;19.00;99.90
48162;DHT22;33950;48.154;16.316;2022-07-15T03:19:57;19.10;99.90
48162;DHT22;33950;48.154;16.316;2022-07-15T03:22:25;19.20;99.90
48162;DHT22;33950;48.154;16.316;2022-07-15T03:24:50;19.20;99.90
48162;DHT22;33950;48.154;16.316;2022-07-15T03:27:17;19.20;99.90
48162;DHT22;33950;48.154;16.316;2022-07-15T03:29:43;19.10;99.90
48162;DHT22;33950;48.154;16.316;2022-07-15T03:32:09;19.00;99.90
48162;DHT22;33950;48.154;16.316;2022-07-15T03:34:35;19.00;99.90
48162;DHT22;33950;48.154;16.316;2022-07-15T03:37:01;19.10;99.90
48162;DHT22;33950;48.154;16.316;2022-07-15T03:39:28;19.10;99.90
48162;DHT22;33950;48.154;16.316;2022-07-15T03:41:54;19.20;99.90
48162;DHT22;33950;48.154;16.316;2022-07-15T03:44:20;19.30;99.90
48162;DHT22;33950;48.154;16.316;2022-07-15T03:46:46;19.30;99.90
48162;DHT22;33950;48.154;16.316;2022-07-15T03:49:12;19.40;99.90
48162;DHT22;33950;48.154;16.316;2022-07-15T03:51:38;19.40;99.90
48162;DHT22;33950;48.154;16.316;2022-07-15T03:54:04;19.40;99.90
48162;DHT22;33950;48.154;16.316;2022-07-15T03:56:31;19.40;99.90
48162;DHT22;33950;48.154;16.316;2022-07-15T03:58:57;19.40;99.90
48162;DHT22;33950;48.154;16.316;2022-07-15T04:01:23;19.40;99.90
48162;DHT22;33950;48.154;16.316;2022-07-15T04:03:49;19.50;99.90
48162;DHT22;33950;48.154;16.316;2022-07-15T04:06:16;19.50;99.90
48162;DHT22;33950;48.154;16.316;2022-07-15T04:08:43;19.60;99.90
48162;DHT22;33950;48.154;16.316;2022-07-15T04:11:09;19.70;99.90
48162;DHT22;33950;48.154;16.316;2022-07-15T04:13:37;19.60;99.90
48162;DHT22;33950;48.154;16.316;2022-07-15T04:16:03;19.60;99.90
48162;DHT22;33950;48.154;16.316;2022-07-15T04:18:29;19.60;99.90
48162;DHT22;33950;48.154;16.316;2022-07-15T04:20:55;19.50;99.90
48162;DHT22;33950;48.154;16.316;2022-07-15T04:23:21;19.50;99.90
48162;DHT22;33950;48.154;16.316;2022-07-15T04:25:48;19.40;99.90
48162;DHT22;33950;48.154;16.316;2022-07-15T04:28:14;19.20;99.90
48162;DHT22;33950;48.154;16.316;2022-07-15T04:30:41;19.10;99.90
48162;DHT22;33950;48.154;16.316;2022-07-15T04:33:06;19.10;99.90
48162;DHT22;33950;48.154;16.316;2022-07-15T04:35:32;19.20;99.90
48162;DHT22;33950;48.154;16.316;2022-07-15T04:37:58;19.20;99.90
48162;DHT22;33950;48.154;16.316;2022-07-15T04:40:25;19.20;99.90
48162;DHT22;33950;48.154;16.316;2022-07-15T04:42:51;19.20;99.90
48162;DHT22;33950;48.154;16.316;2022-07-15T04:45:16;19.20;99.90
48162;DHT22;33950;48.154;16.316;2022-07-15T04:47:44;19.30;99.90
48162;DHT22;33950;48.154;16.316;2022-07-15T04:50:10;19.30;99.90
48162;DHT22;33950;48.154;16.316;2022-07-15T04:52:54;19.20;99.90
48162;DHT22;33950;48.154;16.316;2022-07-15T04:55:20;19.20;99.90
48162;DHT22;33950;48.154;16.316;2022-07-15T04:57:46;19.20;99.90
48162;DHT22;33950;48.154;16.316;2022-07-15T05:00:12;19.20;99.90
48162;DHT22;33950;48.154;16.316;2022-07-15T05:02:37;19.30;99.90
48162;DHT22;33950;48.154;16.316;2022-07-15T05:05:05;19.40;99.90
48162;DHT22;33950;48.154;16.316;2022-07-15T05:07:33;19.50;99.90
48162;DHT22;33950;48.154;16.316;2022-07-15T05:09:58;19.50;99.90
48162;DHT22;33950;48.154;16.316;2022-07-15T05:12:24;19.50;99.90
48162;DHT22;33950;48.154;16.316;2022-07-15T05:14:50;19.60;99.90
48162;DHT22;33950;48.154;16.316;2022-07-15T05:17:16;19.60;99.90
48162;DHT22;33950;48.154;16.316;2022-07-15T05:19:41;19.60;99.90
48162;DHT22;33950;48.154;16.316;2022-07-15T05:22:09;19.60;99.90
48162;DHT22;33950;48.154;16.316;2022-07-15T05:24:35;19.60;99.90
48162;DHT22;33950;48.154;16.316;2022-07-15T05:27:00;19.60;99.90
48162;DHT22;33950;48.154;16.316;2022-07-15T05:29:26;19.50;99.90
48162;DHT22;33950;48.154;16.316;2022-07-15T05:31:52;19.50;99.90
48162;DHT22;33950;48.154;16.316;2022-07-15T05:34:18;19.40;99.90
48162;DHT22;33950;48.154;16.316;2022-07-15T05:36:44;19.40;99.90
48162;DHT22;33950;48.154;16.316;2022-07-15T05:39:11;19.50;99.90
48162;DHT22;33950;48.154;16.316;2022-07-15T05:41:37;19.60;99.90
48162;DHT22;33950;48.154;16.316;2022-07-15T05:44:03;19.70;99.90
48162;DHT22;33950;48.154;16.316;2022-07-15T05:46:29;19.60;99.60
48162;DHT22;33950;48.154;16.316;2022-07-15T05:48:55;19.60;99.60
48162;DHT22;33950;48.154;16.316;2022-07-15T05:51:20;19.60;99.90
48162;DHT22;33950;48.154;16.316;2022-07-15T05:53:46;19.60;99.60
48162;DHT22;33950;48.154;16.316;2022-07-15T05:56:13;19.70;99.40
48162;DHT22;33950;48.154;16.316;2022-07-15T05:58:39;19.60;99.10
48162;DHT22;33950;48.154;16.316;2022-07-15T06:01:05;19.70;98.60
48162;DHT22;33950;48.154;16.316;2022-07-15T06:03:31;19.70;98.20
48162;DHT22;33950;48.154;16.316;2022-07-15T06:05:58;19.70;97.30
48162;DHT22;33950;48.154;16.316;2022-07-15T06:08:23;19.70;96.50
48162;DHT22;33950;48.154;16.316;2022-07-15T06:10:49;19.70;96.30
48162;DHT22;33950;48.154;16.316;2022-07-15T06:13:16;19.60;96.20
48162;DHT22;33950;48.154;16.316;2022-07-15T06:15:42;19.60;96.00
48162;DHT22;33950;48.154;16.316;2022-07-15T06:18:08;19.60;96.10
48162;DHT22;33950;48.154;16.316;2022-07-15T06:20:34;19.70;95.90
48162;DHT22;33950;48.154;16.316;2022-07-15T06:23:00;19.80;94.90
48162;DHT22;33950;48.154;16.316;2022-07-15T06:25:26;19.70;95.00
48162;DHT22;33950;48.154;16.316;2022-07-15T06:27:52;19.70;94.90
48162;DHT22;33950;48.154;16.316;2022-07-15T06:30:19;19.70;93.90
48162;DHT22;33950;48.154;16.316;2022-07-15T06:32:45;19.70;94.00
48162;DHT22;33950;48.154;16.316;2022-07-15T06:35:10;19.70;93.90
48162;DHT22;33950;48.154;16.316;2022-07-15T06:37:37;19.90;93.70
48162;DHT22;33950;48.154;16.316;2022-07-15T06:40:04;19.90;93.20
48162;DHT22;33950;48.154;16.316;2022-07-15T06:42:30;19.90;92.70
48162;DHT22;33950;48.154;16.316;2022-07-15T06:44:56;19.90;92.70
48162;DHT22;33950;48.154;16.316;2022-07-15T06:47:23;20.00;92.20
48162;DHT22;33950;48.154;16.316;2022-07-15T06:49:49;20.00;92.50
48162;DHT22;33950;48.154;16.316;2022-07-15T06:52:16;20.00;92.30
48162;DHT22;33950;48.154;16.316;2022-07-15T06:54:42;20.10;92.10
48162;DHT22;33950;48.154;16.316;2022-07-15T06:57:08;20.00;92.00
48162;DHT22;33950;48.154;16.316;2022-07-15T06:59:34;20.10;91.90
48162;DHT22;33950;48.154;16.316;2022-07-15T07:02:00;20.00;91.70
48162;DHT22;33950;48.154;16.316;2022-07-15T07:04:27;19.90;91.50
48162;DHT22;33950;48.154;16.316;2022-07-15T07:06:53;20.00;91.50
48162;DHT22;33950;48.154;16.316;2022-07-15T07:09:19;20.00;91.50
48162;DHT22;33950;48.154;16.316;2022-07-15T07:11:45;20.00;91.00
48162;DHT22;33950;48.154;16.316;2022-07-15T07:14:12;20.00;91.00
48162;DHT22;33950;48.154;16.316;2022-07-15T07:16:37;20.10;90.80
48162;DHT22;33950;48.154;16.316;2022-07-15T07:19:03;20.10;91.10
48162;DHT22;33950;48.154;16.316;2022-07-15T07:21:30;20.10;90.50
48162;DHT22;33950;48.154;16.316;2022-07-15T07:23:57;20.20;90.50
48162;DHT22;33950;48.154;16.316;2022-07-15T07:26:23;20.20;90.60
48162;DHT22;33950;48.154;16.316;2022-07-15T07:28:49;20.20;90.20
48162;DHT22;33950;48.154;16.316;2022-07-15T07:31:15;20.20;90.50
48162;DHT22;33950;48.154;16.316;2022-07-15T07:33:41;20.40;90.40
48162;DHT22;33950;48.154;16.316;2022-07-15T07:36:07;20.50;90.30
48162;DHT22;33950;48.154;16.316;2022-07-15T07:38:35;20.60;89.90
48162;DHT22;33950;48.154;16.316;2022-07-15T07:41:01;20.70;90.00
48162;DHT22;33950;48.154;16.316;2022-07-15T07:43:28;20.80;90.00
48162;DHT22;33950;48.154;16.316;2022-07-15T07:45:54;20.80;87.90
48162;DHT22;33950;48.154;16.316;2022-07-15T07:48:20;20.80;88.10
48162;DHT22;33950;48.154;16.316;2022-07-15T07:50:46;20.90;87.60
48162;DHT22;33950;48.154;16.316;2022-07-15T07:53:12;20.90;87.60
48162;DHT22;33950;48.154;16.316;2022-07-15T07:55:39;21.10;87.40
48162;DHT22;33950;48.154;16.316;2022-07-15T07:58:06;21.20;87.60
48162;DHT22;33950;48.154;16.316;2022-07-15T08:00:32;21.20;85.70
48162;DHT22;33950;48.154;16.316;2022-07-15T08:02:59;20.90;85.20
48162;DHT22;33950;48.154;16.316;2022-07-15T08:05:26;20.80;86.80
48162;DHT22;33950;48.154;16.316;2022-07-15T08:08:08;21.00;86.00
48162;DHT22;33950;48.154;16.316;2022-07-15T08:10:34;21.10;85.60
48162;DHT22;33950;48.154;16.316;2022-07-15T08:13:01;21.00;84.30
48162;DHT22;33950;48.154;16.316;2022-07-15T08:15:28;21.00;84.40
48162;DHT22;33950;48.154;16.316;2022-07-15T08:17:54;21.00;84.40
48162;DHT22;33950;48.154;16.316;2022-07-15T08:20:20;21.10;84.40
48162;DHT22;33950;48.154;16.316;2022-07-15T08:22:45;21.10;83.40
48162;DHT22;33950;48.154;16.316;2022-07-15T08:25:11;21.00;83.30
48162;DHT22;33950;48.154;16.316;2022-07-15T08:27:37;20.90;83.20
48162;DHT22;33950;48.154;16.316;2022-07-15T08:30:05;21.00;83.20
48162;DHT22;33950;48.154;16.316;2022-07-15T08:32:31;20.90;82.70
48162;DHT22;33950;48.154;16.316;2022-07-15T08:34:57;20.90;82.50
48162;DHT22;33950;48.154;16.316;2022-07-15T08:37:25;20.90;82.10
48162;DHT22;33950;48.154;16.316;2022-07-15T08:39:51;21.00;82.30
48162;DHT22;33950;48.154;16.316;2022-07-15T08:42:18;21.10;82.10
48162;DHT22;33950;48.154;16.316;2022-07-15T08:44:44;21.20;81.50
48162;DHT22;33950;48.154;16.316;2022-07-15T08:47:11;21.30;80.20
48162;DHT22;33950;48.154;16.316;2022-07-15T08:49:39;21.40;80.70
48162;DHT22;33950;48.154;16.316;2022-07-15T08:52:06;21.60;79.50
48162;DHT22;33950;48.154;16.316;2022-07-15T08:54:32;21.60;78.20
48162;DHT22;33950;48.154;16.316;2022-07-15T08:56:58;21.60;77.60
48162;DHT22;33950;48.154;16.316;2022-07-15T08:59:24;21.60;77.30
48162;DHT22;33950;48.154;16.316;2022-07-15T09:01:50;21.70;76.70
48162;DHT22;33950;48.154;16.316;2022-07-15T09:04:18;21.70;77.30
48162;DHT22;33950;48.154;16.316;2022-07-15T09:06:45;21.80;77.70
48162;DHT22;33950;48.154;16.316;2022-07-15T09:09:28;21.80;76.90
48162;DHT22;33950;48.154;16.316;2022-07-15T09:11:57;21.80;76.10
48162;DHT22;33950;48.154;16.316;2022-07-15T09:14:24;21.80;76.80
48162;DHT22;33950;48.154;16.316;2022-07-15T09:16:50;21.90;76.80
48162;DHT22;33950;48.154;16.316;2022-07-15T09:19:17;22.00;75.80
48162;DHT22;33950;48.154;16.316;2022-07-15T09:21:43;22.00;76.00
48162;DHT22;33950;48.154;16.316;2022-07-15T09:24:17;22.00;75.50
48162;DHT22;33950;48.154;16.316;2022-07-15T09:26:43;22.00;75.30
48162;DHT22;33950;48.154;16.316;2022-07-15T09:29:09;22.10;75.00
48162;DHT22;33950;48.154;16.316;2022-07-15T09:31:55;22.10;75.10
48162;DHT22;33950;48.154;16.316;2022-07-15T09:37:09;22.30;74.90
48162;DHT22;33950;48.154;16.316;2022-07-15T09:39:53;22.30;74.90
48162;DHT22;33950;48.154;16.316;2022-07-15T09:42:19;22.50;75.30
48162;DHT22;33950;48.154;16.316;2022-07-15T09:44:45;22.60;74.70
48162;DHT22;33950;48.154;16.316;2022-07-15T09:47:16;22.70;75.40
48162;DHT22;33950;48.154;16.316;2022-07-15T09:49:44;22.90;75.00
48162;DHT22;33950;48.154;16.316;2022-07-15T09:52:12;22.90;75.10
48162;DHT22;33950;48.154;16.316;2022-07-15T09:54:41;23.00;74.40
48162;DHT22;33950;48.154;16.316;2022-07-15T09:57:10;23.00;72.90
48162;DHT22;33950;48.154;16.316;2022-07-15T09:59:37;22.90;73.60
48162;DHT22;33950;48.154;16.316;2022-07-15T10:02:03;23.00;73.60
48162;DHT22;33950;48.154;16.316;2022-07-15T10:04:30;22.90;73.00
48162;DHT22;33950;48.154;16.316;2022-07-15T10:06:57;22.90;73.70
48162;DHT22;33950;48.154;16.316;2022-07-15T10:09:28;23.00;74.00
48162;DHT22;33950;48.154;16.316;2022-07-15T10:11:57;23.10;72.70
48162;DHT22;33950;48.154;16.316;2022-07-15T10:14:37;23.20;72.60
48162;DHT22;33950;48.154;16.316;2022-07-15T10:17:21;23.30;73.30
48162;DHT22;33950;48.154;16.316;2022-07-15T10:20:31;23.30;72.10
48162;DHT22;33950;48.154;16.316;2022-07-15T10:23:13;23.30;72.20
48162;DHT22;33950;48.154;16.316;2022-07-15T10:25:58;23.40;71.40
48162;DHT22;33950;48.154;16.316;2022-07-15T10:28:36;23.40;72.10
48162;DHT22;33950;48.154;16.316;2022-07-15T10:31:14;23.40;71.40
48162;DHT22;33950;48.154;16.316;2022-07-15T10:33:41;23.20;71.80
48162;DHT22;33950;48.154;16.316;2022-07-15T10:36:08;23.30;71.90
48162;DHT22;33950;48.154;16.316;2022-07-15T10:38:35;23.40;72.30
48162;DHT22;33950;48.154;16.316;2022-07-15T10:41:05;23.80;72.70
48162;DHT22;33950;48.154;16.316;2022-07-15T10:43:45;24.10;71.50
48162;DHT22;33950;48.154;16.316;2022-07-15T10:46:20;24.50;70.70
48162;DHT22;33950;48.154;16.316;2022-07-15T10:48:48;24.60;70.50
48162;DHT22;33950;48.154;16.316;2022-07-15T10:51:43;24.60;70.20
48162;DHT22;33950;48.154;16.316;2022-07-15T10:54:11;24.60;70.90
48162;DHT22;33950;48.154;16.316;2022-07-15T10:56:57;24.70;69.60
48162;DHT22;33950;48.154;16.316;2022-07-15T10:59:24;24.90;70.40
48162;DHT22;33950;48.154;16.316;2022-07-15T11:02:10;24.80;69.50
48162;DHT22;33950;48.154;16.316;2022-07-15T11:04:37;24.70;70.00
48162;DHT22;33950;48.154;16.316;2022-07-15T11:07:28;24.90;70.40
48162;DHT22;33950;48.154;16.316;2022-07-15T11:09:58;25.40;69.00
48162;DHT22;33950;48.154;16.316;2022-07-15T11:12:58;25.20;68.60
48162;DHT22;33950;48.154;16.316;2022-07-15T11:15:25;25.00;68.30
48162;DHT22;33950;48.154;16.316;2022-07-15T11:17:52;25.20;69.60
48162;DHT22;33950;48.154;16.316;2022-07-15T11:20:21;25.60;69.20
48162;DHT22;33950;48.154;16.316;2022-07-15T11:22:48;26.00;69.30
48162;DHT22;33950;48.154;16.316;2022-07-15T11:25:18;26.50;66.70
48162;DHT22;33950;48.154;16.316;2022-07-15T11:30:40;26.30;65.90
48162;DHT22;33950;48.154;16.316;2022-07-15T11:33:07;25.90;66.60
48162;DHT22;33950;48.154;16.316;2022-07-15T11:35:43;25.90;67.10
48162;DHT22;33950;48.154;16.316;2022-07-15T11:38:09;25.70;66.30
48162;DHT22;33950;48.154;16.316;2022-07-15T11:40:35;25.90;66.90
48162;DHT22;33950;48.154;16.316;2022-07-15T11:43:25;26.10;66.00
48162;DHT22;33950;48.154;16.316;2022-07-15T11:46:11;25.90;66.20
48162;DHT22;33950;48.154;16.316;2022-07-15T11:48:37;25.90;66.60
48162;DHT22;33950;48.154;16.316;2022-07-15T11:51:04;26.20;66.20
48162;DHT22;33950;48.154;16.316;2022-07-15T11:53:35;26.30;65.00
48162;DHT22;33950;48.154;16.316;2022-07-15T11:56:02;26.10;65.10
48162;DHT22;33950;48.154;16.316;2022-07-15T11:58:30;26.00;65.70
48162;DHT22;33950;48.154;16.316;2022-07-15T12:00:57;25.90;65.60
48162;DHT22;33950;48.154;16.316;2022-07-15T12:03:30;26.10;65.40
48162;DHT22;33950;48.154;16.316;2022-07-15T12:06:01;26.20;63.90
48162;DHT22;33950;48.154;16.316;2022-07-15T12:08:39;26.60;63.40
48162;DHT22;33950;48.154;16.316;2022-07-15T12:11:17;27.00;63.30
48162;DHT22;33950;48.154;16.316;2022-07-15T12:13:45;27.50;63.40
48162;DHT22;33950;48.154;16.316;2022-07-15T12:16:11;27.50;63.60
48162;DHT22;33950;48.154;16.316;2022-07-15T12:18:39;27.40;63.10
48162;DHT22;33950;48.154;16.316;2022-07-15T12:21:05;27.60;63.20
48162;DHT22;33950;48.154;16.316;2022-07-15T12:23:31;27.90;62.00
48162;DHT22;33950;48.154;16.316;2022-07-15T12:26:04;27.60;61.40
48162;DHT22;33950;48.154;16.316;2022-07-15T12:28:31;27.20;63.50
48162;DHT22;33950;48.154;16.316;2022-07-15T12:30:57;27.40;63.70
48162;DHT22;33950;48.154;16.316;2022-07-15T12:33:25;27.90;62.20
48162;DHT22;33950;48.154;16.316;2022-07-15T12:36:12;28.20;61.50
48162;DHT22;33950;48.154;16.316;2022-07-15T12:38:38;28.50;61.30
48162;DHT22;33950;48.154;16.316;2022-07-15T12:41:05;28.60;60.70
48162;DHT22;33950;48.154;16.316;2022-07-15T12:43:47;28.80;60.70
48162;DHT22;33950;48.154;16.316;2022-07-15T12:46:14;28.60;60.50
48162;DHT22;33950;48.154;16.316;2022-07-15T12:48:43;28.40;60.90
48162;DHT22;33950;48.154;16.316;2022-07-15T12:51:10;28.20;60.70
48162;DHT22;33950;48.154;16.316;2022-07-15T12:53:38;28.00;60.00
48162;DHT22;33950;48.154;16.316;2022-07-15T12:56:04;27.90;60.80
48162;DHT22;33950;48.154;16.316;2022-07-15T12:58:32;28.10;60.80
48162;DHT22;33950;48.154;16.316;2022-07-15T13:01:06;28.70;60.90
48162;DHT22;33950;48.154;16.316;2022-07-15T13:03:32;29.00;59.60
48162;DHT22;33950;48.154;16.316;2022-07-15T13:05:58;29.00;59.90
48162;DHT22;33950;48.154;16.316;2022-07-15T13:08:27;28.40;59.60
48162;DHT22;33950;48.154;16.316;2022-07-15T13:10:55;27.80;59.00
48162;DHT22;33950;48.154;16.316;2022-07-15T13:13:23;27.40;60.40
48162;DHT22;33950;48.154;16.316;2022-07-15T13:15:50;27.40;59.50
48162;DHT22;33950;48.154;16.316;2022-07-15T13:18:17;27.30;60.00
48162;DHT22;33950;48.154;16.316;2022-07-15T13:20:44;27.10;60.30
48162;DHT22;33950;48.154;16.316;2022-07-15T13:23:11;27.10;61.00
48162;DHT22;33950;48.154;16.316;2022-07-15T13:25:38;27.30;61.60
48162;DHT22;33950;48.154;16.316;2022-07-15T13:28:07;27.50;60.80
48162;DHT22;33950;48.154;16.316;2022-07-15T13:30:33;27.60;59.90
48162;DHT22;33950;48.154;16.316;2022-07-15T13:33:00;27.50;60.30
48162;DHT22;33950;48.154;16.316;2022-07-15T13:35:26;27.40;60.60
48162;DHT22;33950;48.154;16.316;2022-07-15T13:37:52;27.50;59.70
48162;DHT22;33950;48.154;16.316;2022-07-15T13:40:18;27.60;60.00
48162;DHT22;33950;48.154;16.316;2022-07-15T13:42:45;27.50;60.50
48162;DHT22;33950;48.154;16.316;2022-07-15T13:45:13;27.50;60.00
48162;DHT22;33950;48.154;16.316;2022-07-15T13:47:39;27.60;60.30
48162;DHT22;33950;48.154;16.316;2022-07-15T13:50:06;27.90;59.90
48162;DHT22;33950;48.154;16.316;2022-07-15T13:52:53;27.80;59.40
48162;DHT22;33950;48.154;16.316;2022-07-15T13:55:21;27.50;59.10
48162;DHT22;33950;48.154;16.316;2022-07-15T13:57:49;27.30;59.50
48162;DHT22;33950;48.154;16.316;2022-07-15T14:00:16;27.50;60.30
48162;DHT22;33950;48.154;16.316;2022-07-15T14:02:42;27.90;59.70
48162;DHT22;33950;48.154;16.316;2022-07-15T14:05:10;28.30;59.70
48162;DHT22;33950;48.154;16.316;2022-07-15T14:07:36;28.60;58.90
48162;DHT22;33950;48.154;16.316;2022-07-15T14:10:03;28.60;58.70
48162;DHT22;33950;48.154;16.316;2022-07-15T14:12:29;29.00;58.00
48162;DHT22;33950;48.154;16.316;2022-07-15T14:14:56;28.90;58.70
48162;DHT22;33950;48.154;16.316;2022-07-15T14:17:22;29.20;59.00
48162;DHT22;33950;48.154;16.316;2022-07-15T14:19:48;29.40;58.60
48162;DHT22;33950;48.154;16.316;2022-07-15T14:22:13;29.30;57.80
48162;DHT22;33950;48.154;16.316;2022-07-15T14:24:39;29.10;56.80
48162;DHT22;33950;48.154;16.316;2022-07-15T14:27:05;28.80;57.90
48162;DHT22;33950;48.154;16.316;2022-07-15T14:29:31;28.90;57.40
48162;DHT22;33950;48.154;16.316;2022-07-15T14:31:58;29.30;58.40
48162;DHT22;33950;48.154;16.316;2022-07-15T14:34:24;29.60;57.60
48162;DHT22;33950;48.154;16.316;2022-07-15T14:36:50;29.50;57.20
48162;DHT22;33950;48.154;16.316;2022-07-15T14:39:15;29.60;57.20
48162;DHT22;33950;48.154;16.316;2022-07-15T14:41:42;29.90;55.80
48162;DHT22;33950;48.154;16.316;2022-07-15T14:44:07;30.00;54.00
48162;DHT22;33950;48.154;16.316;2022-07-15T14:46:34;30.00;55.70
48162;DHT22;33950;48.154;16.316;2022-07-15T14:49:01;30.00;55.50
48162;DHT22;33950;48.154;16.316;2022-07-15T14:51:27;30.00;55.70
48162;DHT22;33950;48.154;16.316;2022-07-15T14:53:52;29.90;55.10
48162;DHT22;33950;48.154;16.316;2022-07-15T14:56:18;29.80;55.70
48162;DHT22;33950;48.154;16.316;2022-07-15T14:58:44;29.60;55.60
48162;DHT22;33950;48.154;16.316;2022-07-15T15:01:10;29.40;56.50
48162;DHT22;33950;48.154;16.316;2022-07-15T15:03:36;29.60;55.30
48162;DHT22;33950;48.154;16.316;2022-07-15T15:06:03;29.60;54.50
48162;DHT22;33950;48.154;16.316;2022-07-15T15:08:29;29.50;55.00
48162;DHT22;33950;48.154;16.316;2022-07-15T15:10:55;29.30;55.30
48162;DHT22;33950;48.154;16.316;2022-07-15T15:13:21;29.00;55.10
48162;DHT22;33950;48.154;16.316;2022-07-15T15:15:47;28.70;55.60
48162;DHT22;33950;48.154;16.316;2022-07-15T15:18:13;28.50;56.10
48162;DHT22;33950;48.154;16.316;2022-07-15T15:20:38;28.40;55.40
48162;DHT22;33950;48.154;16.316;2022-07-15T15:23:06;28.30;55.80
48162;DHT22;33950;48.154;16.316;2022-07-15T15:25:32;28.00;55.70